createdAt,value
2018-10-18T00:00:59.001Z,96745.39
2018-10-18T00:03:28.849Z,96746.98
2018-10-18T00:05:59.319Z,96746.95
2018-10-18T00:08:27.852Z,96746.80
2018-10-18T00:10:57.315Z,96695.95
2018-10-18T00:13:26.056Z,96739.27
2018-10-18T00:15:55.703Z,96738.12
2018-10-18T00:18:25.966Z,96739.77
2018-10-18T00:20:59.015Z,96739.28
2018-10-18T00:23:28.933Z,96735.86
2018-10-18T00:25:59.865Z,96741.25
2018-10-18T00:28:29.774Z,96744.61
2018-10-18T00:30:59.508Z,96743.10
2018-10-18T00:33:32.830Z,96748.09
2018-10-18T00:36:03.449Z,96741.53
2018-10-18T00:38:31.974Z,96740.17
2018-10-18T00:41:00.744Z,96746.14
2018-10-18T00:43:29.859Z,96742.28
2018-10-18T00:46:00.258Z,96743.94
2018-10-18T00:48:29.618Z,96746.44
2018-10-18T00:50:58.764Z,96742.47
2018-10-18T00:53:29.844Z,96744.27
2018-10-18T00:55:59.538Z,96741.41
2018-10-18T00:58:29.548Z,96740.21
2018-10-18T01:00:58.937Z,96738.42
2018-10-18T01:03:29.686Z,96735.47
2018-10-18T01:05:59.345Z,96731.48
2018-10-18T01:08:29.095Z,96734.50
2018-10-18T01:10:59.558Z,96727.70
2018-10-18T01:13:29.099Z,96732.52
2018-10-18T01:15:58.993Z,96734.02
2018-10-18T01:18:29.548Z,96736.10
2018-10-18T01:21:00.983Z,96735.98
2018-10-18T01:23:31.553Z,96734.98
2018-10-18T01:26:03.187Z,96737.30
2018-10-18T01:28:32.297Z,96737.30
2018-10-18T01:31:01.934Z,96734.02
2018-10-18T01:33:31.027Z,96728.20
2018-10-18T01:36:01.546Z,96723.59
2018-10-18T01:38:32.001Z,96721.33
2018-10-18T01:41:04.923Z,96720.64
2018-10-18T01:43:36.483Z,96720.62
2018-10-18T01:46:07.016Z,96719.76
2018-10-18T01:49:06.660Z,96713.45
2018-10-18T01:51:35.800Z,96716.59
2018-10-18T01:54:06.350Z,96718.20
2018-10-18T01:56:36.903Z,96720.16
2018-10-18T01:59:07.399Z,96711.88
2018-10-18T02:01:36.673Z,96718.37
2018-10-18T02:04:06.077Z,96721.45
2018-10-18T02:06:34.825Z,96713.80
2018-10-18T02:09:04.700Z,96729.33
2018-10-18T02:11:35.749Z,96722.39
2018-10-18T02:14:05.341Z,96730.17
2018-10-18T02:16:35.513Z,96730.20
2018-10-18T02:19:05.425Z,96727.50
2018-10-18T02:21:34.720Z,96725.97
2018-10-18T02:24:04.632Z,96726.98
2018-10-18T02:26:34.339Z,96725.99
2018-10-18T02:29:04.271Z,96724.67
2018-10-18T02:31:34.304Z,96728.61
2018-10-18T02:34:04.248Z,96726.69
2018-10-18T02:36:34.389Z,96717.20
2018-10-18T02:39:03.517Z,96719.97
2018-10-18T02:41:32.679Z,96717.97
2018-10-18T02:44:02.751Z,96713.59
2018-10-18T02:46:32.152Z,96717.81
2018-10-18T02:49:02.855Z,96717.77
2018-10-18T02:51:32.841Z,96719.22
2018-10-18T02:54:02.192Z,96718.58
2018-10-18T02:56:32.279Z,96721.22
2018-10-18T02:59:02.802Z,96719.90
2018-10-18T03:01:32.247Z,96723.94
2018-10-18T03:04:03.039Z,96675.66
2018-10-18T03:06:32.649Z,96723.13
2018-10-18T03:09:02.112Z,96730.84
2018-10-18T03:11:32.803Z,96724.98
2018-10-18T03:14:04.775Z,96722.04
2018-10-18T03:16:34.954Z,96725.80
2018-10-18T03:19:06.111Z,96721.77
2018-10-18T03:21:34.988Z,96730.58
2018-10-18T03:24:04.269Z,96728.98
2018-10-18T03:26:32.784Z,96720.72
2018-10-18T03:29:02.220Z,96728.45
2018-10-18T03:31:31.983Z,96735.62
2018-10-18T03:34:04.944Z,96729.74
2018-10-18T03:36:34.384Z,96730.77
2018-10-18T03:39:05.387Z,96728.89
2018-10-18T03:41:34.637Z,96727.05
2018-10-18T03:44:05.515Z,96726.77
2018-10-18T03:46:36.081Z,96729.73
2018-10-18T03:49:06.493Z,96727.66
2018-10-18T03:51:36.255Z,96727.15
2018-10-18T03:54:06.805Z,96733.49
2018-10-18T03:56:36.399Z,96734.59
2018-10-18T03:59:06.115Z,96731.65
2018-10-18T04:01:35.387Z,96728.48
2018-10-18T04:04:06.461Z,96726.86
2018-10-18T04:06:37.870Z,96734.30
2018-10-18T04:09:08.829Z,96733.50
2018-10-18T04:11:40.777Z,96733.70
2018-10-18T04:14:09.275Z,96734.26
2018-10-18T04:16:38.783Z,96741.59
2018-10-18T04:19:09.882Z,96740.55
2018-10-18T04:21:40.856Z,96739.51
2018-10-18T04:24:09.499Z,96735.85
2018-10-18T04:26:37.993Z,96731.83
2018-10-18T04:29:07.660Z,96734.53
2018-10-18T04:31:37.793Z,96738.00
2018-10-18T04:34:06.731Z,96738.55
2018-10-18T04:36:35.446Z,96740.66
2018-10-18T04:39:07.268Z,96736.45
2018-10-18T04:41:37.147Z,96742.53
2018-10-18T04:44:07.276Z,96743.83
2018-10-18T04:46:37.667Z,96743.27
2018-10-18T04:49:08.007Z,96749.13
2018-10-18T04:51:38.385Z,96745.62
2018-10-18T04:54:08.796Z,96751.80
2018-10-18T04:56:39.387Z,96748.03
2018-10-18T04:59:08.436Z,96745.16
2018-10-18T05:01:39.921Z,96750.66
2018-10-18T05:04:11.056Z,96750.68
2018-10-18T05:06:42.195Z,96749.55
2018-10-18T05:09:12.680Z,96756.53
2018-10-18T05:11:42.329Z,96760.72
2018-10-18T05:14:12.407Z,96764.18
2018-10-18T05:19:42.332Z,96759.73
2018-10-18T05:22:10.894Z,96761.47
2018-10-18T05:24:39.744Z,96758.19
2018-10-18T05:27:09.258Z,96756.69
2018-10-18T05:30:12.165Z,96759.64
2018-10-18T05:32:41.623Z,96756.25
2018-10-18T05:35:11.858Z,96768.41
2018-10-18T05:37:42.419Z,96767.05
2018-10-18T05:40:11.398Z,96772.68
2018-10-18T05:42:41.055Z,96776.72
2018-10-18T05:45:10.092Z,96776.16
2018-10-18T05:47:40.278Z,96779.53
2018-10-18T05:50:10.616Z,96784.39
2018-10-18T05:52:41.249Z,96780.16
2018-10-18T05:55:12.329Z,96401.52
2018-10-18T05:57:42.355Z,96786.02
2018-10-18T06:00:17.143Z,96791.34
2018-10-18T06:02:47.365Z,96795.38
2018-10-18T06:05:17.680Z,96829.40
2018-10-18T06:07:46.645Z,96793.49
2018-10-18T06:10:27.566Z,96798.33
2018-10-18T06:12:58.853Z,96802.53
2018-10-18T06:15:28.783Z,96805.95
2018-10-18T06:17:58.274Z,96806.36
2018-10-18T06:20:27.972Z,96805.09
2018-10-18T06:22:58.941Z,96810.19
2018-10-18T06:25:29.587Z,96810.03
2018-10-18T06:27:58.992Z,96815.33
2018-10-18T06:30:28.675Z,96816.88
2018-10-18T06:32:58.255Z,96814.98
2018-10-18T06:35:26.747Z,96821.28
2018-10-18T06:37:55.319Z,96819.08
2018-10-18T06:40:24.576Z,96823.33
2018-10-18T06:42:54.677Z,96823.14
2018-10-18T06:45:25.073Z,96827.94
2018-10-18T06:47:55.913Z,96826.08
2018-10-18T06:50:24.567Z,96825.92
2018-10-18T06:52:54.206Z,96822.97
2018-10-18T06:55:24.213Z,96827.22
2018-10-18T06:57:58.532Z,96825.90
2018-10-18T07:00:28.076Z,96829.36
2018-10-18T07:02:58.135Z,96829.11
2018-10-18T07:05:26.784Z,96836.50
2018-10-18T07:07:56.116Z,95431.23
2018-10-18T07:10:26.668Z,96833.69
2018-10-18T07:12:56.373Z,96838.97
2018-10-18T07:15:25.480Z,96831.23
2018-10-18T07:17:55.852Z,96834.06
2018-10-18T07:20:27.239Z,96838.47
2018-10-18T07:22:58.884Z,96836.31
2018-10-18T07:25:29.704Z,96837.86
2018-10-18T07:27:59.797Z,96840.78
2018-10-18T07:30:30.098Z,96836.08
2018-10-18T07:33:00.230Z,96840.40
2018-10-18T07:35:30.922Z,96843.97
2018-10-18T07:38:02.847Z,96848.64
2018-10-18T07:40:32.809Z,96848.23
2018-10-18T07:43:02.954Z,96852.34
2018-10-18T07:45:32.066Z,96853.06
2018-10-18T07:48:02.014Z,96857.59
2018-10-18T07:50:31.154Z,96855.31
2018-10-18T07:53:01.330Z,96891.09
2018-10-18T07:55:30.779Z,96867.20
2018-10-18T07:58:03.779Z,96866.65
2018-10-18T08:00:33.593Z,96874.01
2018-10-18T08:03:02.860Z,96869.13
2018-10-18T08:05:34.406Z,96868.48
2018-10-18T08:08:05.141Z,96865.22
2018-10-18T08:10:35.067Z,96866.84
2018-10-18T08:13:14.814Z,96870.90
2018-10-18T08:15:44.668Z,96866.66
2018-10-18T08:18:14.867Z,96868.61
2018-10-18T08:20:44.548Z,96868.86
2018-10-18T08:23:14.459Z,96865.55
2018-10-18T08:25:43.619Z,96869.52
2018-10-18T08:28:13.767Z,96866.14
2018-10-18T08:30:44.541Z,96876.91
2018-10-18T08:33:13.813Z,96872.03
2018-10-18T08:35:43.132Z,96866.47
2018-10-18T08:38:12.630Z,96874.80
2018-10-18T08:40:42.347Z,96870.83
2018-10-18T08:43:12.056Z,96873.95
2018-10-18T08:45:42.643Z,96866.77
2018-10-18T08:48:11.455Z,96864.61
2018-10-18T08:50:41.026Z,96867.84
2018-10-18T08:53:10.540Z,96870.02
2018-10-18T08:55:40.819Z,96877.39
2018-10-18T08:58:18.253Z,96877.17
2018-10-18T09:00:47.237Z,96876.52
2018-10-18T09:03:16.506Z,96876.28
2018-10-18T09:05:48.036Z,96877.13
2018-10-18T09:08:17.641Z,96882.83
2018-10-18T09:10:47.140Z,96886.94
2018-10-18T09:13:16.295Z,96888.17
2018-10-18T09:15:46.694Z,96889.00
2018-10-18T09:18:30.947Z,96881.72
2018-10-18T09:21:01.763Z,96879.84
2018-10-18T09:23:30.624Z,96882.48
2018-10-18T09:27:02.291Z,96880.02
2018-10-18T09:29:31.522Z,96877.34
2018-10-18T09:32:03.649Z,96874.89
2018-10-18T09:34:33.827Z,96872.77
2018-10-18T09:37:03.875Z,96870.77
2018-10-18T09:39:33.701Z,96877.39
2018-10-18T09:42:03.262Z,96874.88
2018-10-18T09:44:32.124Z,96872.87
2018-10-18T09:47:01.459Z,96876.95
2018-10-18T09:49:37.026Z,96871.51
2018-10-18T09:52:06.788Z,96875.51
2018-10-18T09:54:36.017Z,96875.19
2018-10-18T09:57:05.884Z,96878.13
2018-10-18T09:59:38.367Z,96881.91
2018-10-18T10:02:13.342Z,96885.70
2018-10-18T10:04:43.950Z,96881.23
2018-10-18T10:07:15.689Z,96878.44
2018-10-18T10:09:45.016Z,96877.33
2018-10-18T10:12:14.568Z,96881.66
2018-10-18T10:16:53.288Z,96880.57
2018-10-18T10:19:24.590Z,96873.97
2018-10-18T10:21:53.756Z,96868.02
2018-10-18T10:24:24.003Z,96871.84
2018-10-18T10:26:54.830Z,96867.08
2018-10-18T10:29:24.133Z,96862.27
2018-10-18T10:31:57.601Z,96864.89
2018-10-18T10:34:29.094Z,96868.53
2018-10-18T10:36:58.759Z,96867.17
2018-10-18T10:39:27.797Z,96865.23
2018-10-18T10:41:58.918Z,96865.89
2018-10-18T10:44:29.953Z,96859.33
2018-10-18T10:46:59.332Z,96915.81
2018-10-18T10:49:28.985Z,96863.03
2018-10-18T10:51:58.353Z,96863.78
2018-10-18T10:57:03.886Z,96904.21
2018-10-18T10:59:34.688Z,96859.63
2018-10-18T11:02:05.934Z,96855.86
2018-10-18T11:04:36.030Z,96849.70
2018-10-18T11:07:06.443Z,96851.63
2018-10-18T11:09:37.027Z,96850.79
2018-10-18T11:12:07.896Z,96842.23
2018-10-18T11:14:36.631Z,96848.39
2018-10-18T11:17:05.391Z,96839.12
2018-10-18T11:19:35.268Z,96840.01
2018-10-18T11:22:05.835Z,96841.73
2018-10-18T11:24:36.927Z,96835.22
2018-10-18T11:27:06.090Z,96832.52
2018-10-18T11:29:34.923Z,96835.60
2018-10-18T11:32:03.661Z,96829.42
2018-10-18T11:34:36.141Z,96824.78
2018-10-18T11:39:44.253Z,96831.55
2018-10-18T11:42:14.368Z,96833.53
2018-10-18T11:44:44.997Z,96828.86
2018-10-18T11:47:15.382Z,96830.72
2018-10-18T11:49:44.482Z,96821.38
2018-10-18T11:52:14.173Z,96823.67
2018-10-18T11:54:42.998Z,96819.38
2018-10-18T11:57:12.586Z,96819.64
2018-10-18T11:59:42.413Z,96451.69
2018-10-18T12:02:12.767Z,96819.55
2018-10-18T12:04:43.340Z,96812.42
2018-10-18T12:09:59.991Z,96811.14
2018-10-18T12:12:28.555Z,96810.19
2018-10-18T12:14:58.708Z,96810.43
2018-10-18T12:17:29.625Z,96801.43
2018-10-18T12:19:59.529Z,96802.52
2018-10-18T12:22:29.205Z,96802.61
2018-10-18T12:24:58.004Z,96837.11
2018-10-18T12:27:30.017Z,96798.30
2018-10-18T12:29:59.055Z,96801.36
2018-10-18T12:32:31.153Z,96800.02
2018-10-18T12:35:01.158Z,96804.82
2018-10-18T12:37:30.269Z,96807.92
2018-10-18T12:40:00.620Z,96800.45
2018-10-18T12:42:31.200Z,96808.06
2018-10-18T12:45:00.808Z,96798.20
2018-10-18T12:47:31.275Z,96767.29
2018-10-18T12:50:01.980Z,96801.09
2018-10-18T12:52:31.884Z,96802.80
2018-10-18T12:55:01.034Z,96803.30
2018-10-18T12:57:30.032Z,96800.98
2018-10-18T12:59:58.918Z,96797.21
2018-10-18T13:02:27.913Z,96799.34
2018-10-18T13:04:57.698Z,96798.63
2018-10-18T13:07:27.004Z,96794.13
2018-10-18T13:09:56.016Z,96796.63
2018-10-18T13:12:25.329Z,96798.39
2018-10-18T13:14:54.239Z,96802.63
2018-10-18T13:17:24.165Z,96791.76
2018-10-18T13:19:53.977Z,96789.70
2018-10-18T13:22:22.582Z,96789.81
2018-10-18T13:24:51.275Z,96789.42
2018-10-18T13:27:21.813Z,96786.16
2018-10-18T13:29:51.367Z,96795.44
2018-10-18T13:32:22.186Z,96786.82
2018-10-18T13:34:51.423Z,97073.73
2018-10-18T13:37:20.741Z,96790.73
2018-10-18T13:39:49.814Z,96790.34
2018-10-18T13:42:20.872Z,96797.19
2018-10-18T13:44:50.675Z,96796.57
2018-10-18T13:47:20.460Z,96789.77
2018-10-18T13:49:50.076Z,96787.50
2018-10-18T13:52:20.403Z,96798.19
2018-10-18T13:54:49.983Z,96798.14
2018-10-18T13:57:20.145Z,96786.15
2018-10-18T13:59:59.702Z,96787.80
2018-10-18T14:02:28.690Z,96780.98
2018-10-18T14:04:58.762Z,96786.25
2018-10-18T14:07:28.436Z,96778.38
2018-10-18T14:09:57.773Z,96776.87
2018-10-18T14:12:27.394Z,96775.83
2018-10-18T14:14:57.908Z,96448.99
2018-10-18T14:17:26.918Z,96780.33
2018-10-18T14:19:57.025Z,96780.66
2018-10-18T14:22:26.684Z,96779.92
2018-10-18T14:25:24.243Z,96782.67
2018-10-18T14:27:53.914Z,96777.23
2018-10-18T14:30:24.820Z,96777.44
2018-10-18T14:32:54.340Z,96770.78
2018-10-18T14:35:24.043Z,96769.91
2018-10-18T14:37:55.565Z,96779.63
2018-10-18T14:40:25.893Z,96774.59
2018-10-18T14:42:55.352Z,96777.19
2018-10-18T14:45:24.895Z,96778.16
2018-10-18T14:47:53.592Z,96779.69
2018-10-18T14:50:23.069Z,96781.19
2018-10-18T14:52:52.094Z,96780.14
2018-10-18T14:55:21.442Z,96780.20
2018-10-18T14:57:52.599Z,96778.94
2018-10-18T15:00:22.040Z,96779.00
2018-10-18T15:02:50.544Z,96779.58
2018-10-18T15:05:20.645Z,96776.76
2018-10-18T15:07:49.943Z,96785.23
2018-10-18T15:10:18.772Z,96781.91
2018-10-18T15:12:48.459Z,96779.30
2018-10-18T15:15:18.919Z,96779.34
2018-10-18T15:17:48.531Z,96777.77
2018-10-18T15:20:17.968Z,96774.45
2018-10-18T15:22:48.555Z,96779.83
2018-10-18T15:25:17.780Z,96776.87
2018-10-18T15:27:47.375Z,96781.28
2018-10-18T15:30:17.226Z,96783.00
2018-10-18T15:32:47.299Z,96777.44
2018-10-18T15:35:19.587Z,96777.04
2018-10-18T15:37:48.440Z,96771.17
2018-10-18T15:40:18.105Z,96773.72
2018-10-18T15:42:47.525Z,96774.52
2018-10-18T15:45:16.665Z,96773.91
2018-10-18T15:47:46.227Z,96778.64
2018-10-18T15:50:15.200Z,96777.47
2018-10-18T15:52:44.448Z,96779.76
2018-10-18T15:55:14.360Z,96778.19
2018-10-18T15:57:44.958Z,96778.78
2018-10-18T16:00:16.526Z,96787.38
2018-10-18T16:02:45.788Z,96789.42
2018-10-18T16:05:15.663Z,96934.48
2018-10-18T16:07:45.828Z,96790.67
2018-10-18T16:10:15.810Z,96789.78
2018-10-18T16:12:45.809Z,96795.12
2018-10-18T16:15:15.788Z,96799.14
2018-10-18T16:17:44.735Z,96796.84
2018-10-18T16:20:14.634Z,96799.28
2018-10-18T16:22:47.104Z,96710.05
2018-10-18T16:25:16.706Z,96801.44
2018-10-18T16:27:46.519Z,96799.41
2018-10-18T16:30:15.873Z,96805.41
2018-10-18T16:32:44.695Z,96805.47
2018-10-18T16:35:14.960Z,96812.67
2018-10-18T16:37:45.095Z,96818.69
2018-10-18T16:40:16.515Z,96824.50
2018-10-18T16:42:47.177Z,96823.98
2018-10-18T16:45:16.233Z,96833.43
2018-10-18T16:47:46.336Z,96840.50
2018-10-18T16:50:15.454Z,96841.20
2018-10-18T16:52:44.716Z,96850.73
2018-10-18T16:55:13.214Z,96860.20
2018-10-18T16:57:43.649Z,96857.31
2018-10-18T17:00:14.012Z,96860.83
2018-10-18T17:02:45.077Z,96862.77
2018-10-18T17:05:16.700Z,96858.92
2018-10-18T17:07:46.401Z,96855.16
2018-10-18T17:10:17.201Z,96866.08
2018-10-18T17:12:46.649Z,96868.75
2018-10-18T17:15:16.296Z,96871.34
2018-10-18T17:17:44.983Z,96876.44
2018-10-18T17:20:15.245Z,96883.73
2018-10-18T17:22:45.970Z,96833.00
2018-10-18T17:25:23.205Z,96883.21
2018-10-18T17:27:52.073Z,96885.38
2018-10-18T17:30:22.767Z,96890.91
2018-10-18T17:32:53.788Z,96890.04
2018-10-18T17:35:25.495Z,96887.80
2018-10-18T17:37:55.866Z,96887.45
2018-10-18T17:40:24.608Z,96885.08
2018-10-18T17:42:54.520Z,96891.00
2018-10-18T17:45:23.678Z,96897.52
2018-10-18T17:47:54.426Z,96895.53
2018-10-18T17:50:24.082Z,96898.46
2018-10-18T17:52:54.422Z,96899.55
2018-10-18T17:55:24.257Z,96898.94
2018-10-18T17:57:52.815Z,96900.23
2018-10-18T18:00:22.186Z,96896.65
2018-10-18T18:02:51.632Z,96899.51
2018-10-18T18:05:21.727Z,96904.08
2018-10-18T18:07:52.608Z,96901.83
2018-10-18T18:10:22.329Z,96904.04
2018-10-18T18:12:51.760Z,96905.64
2018-10-18T18:15:23.218Z,96903.78
2018-10-18T18:17:52.268Z,96908.83
2018-10-18T18:20:22.450Z,96903.47
2018-10-18T18:22:52.699Z,96906.32
2018-10-18T18:25:22.442Z,96905.41
2018-10-18T18:27:52.668Z,96905.31
2018-10-18T18:30:22.166Z,96903.27
2018-10-18T18:32:51.426Z,96905.98
2018-10-18T18:35:21.308Z,96911.69
2018-10-18T18:37:53.355Z,96871.39
2018-10-18T18:40:22.478Z,96913.03
2018-10-18T18:42:54.056Z,96912.95
2018-10-18T18:45:25.979Z,96930.27
2018-10-18T18:47:55.500Z,96917.89
2018-10-18T18:50:24.285Z,96918.34
2018-10-18T18:52:54.371Z,96920.56
2018-10-18T18:55:25.696Z,96924.88
2018-10-18T18:57:54.881Z,96923.05
2018-10-18T19:00:24.855Z,96930.48
2018-10-18T19:02:53.380Z,96928.74
2018-10-18T19:05:22.414Z,96928.22
2018-10-18T19:07:53.744Z,96928.45
2018-10-18T19:10:22.557Z,96926.52
2018-10-18T19:12:53.051Z,96931.13
2018-10-18T19:15:22.883Z,96931.41
2018-10-18T19:17:51.769Z,96931.23
2018-10-18T19:20:20.411Z,96930.19
2018-10-18T19:22:51.504Z,96935.86
2018-10-18T19:25:20.496Z,96934.89
2018-10-18T19:27:49.053Z,96939.79
2018-10-18T19:30:20.136Z,96940.38
2018-10-18T19:32:50.194Z,96942.43
2018-10-18T19:35:20.275Z,96942.98
2018-10-18T19:37:50.364Z,96640.66
2018-10-18T19:40:19.577Z,96953.48
2018-10-18T19:42:50.251Z,96596.74
2018-10-18T19:45:25.460Z,96951.19
2018-10-18T19:47:55.144Z,96952.17
2018-10-18T19:50:24.650Z,96954.94
2018-10-18T19:52:56.382Z,96956.16
2018-10-18T19:55:25.612Z,96958.73
2018-10-18T19:57:56.897Z,96960.47
2018-10-18T20:00:26.279Z,96955.48
2018-10-18T20:02:55.080Z,96965.63
2018-10-18T20:05:25.462Z,96963.07
2018-10-18T20:07:54.659Z,96961.73
2018-10-18T20:10:25.100Z,96965.95
2018-10-18T20:12:53.930Z,96967.60
2018-10-18T20:15:23.127Z,96966.81
2018-10-18T20:17:53.794Z,96964.95
2018-10-18T20:20:25.181Z,96967.39
2018-10-18T20:22:54.498Z,96968.72
2018-10-18T20:25:24.547Z,96966.47
2018-10-18T20:27:54.404Z,96966.50
2018-10-18T20:30:24.361Z,96961.34
2018-10-18T20:32:55.165Z,96963.03
2018-10-18T20:35:26.183Z,96962.41
2018-10-18T20:37:55.868Z,96973.14
2018-10-18T20:40:26.229Z,96971.97
2018-10-18T20:42:54.758Z,96977.64
2018-10-18T20:45:25.076Z,96966.94
2018-10-18T20:47:54.300Z,96978.17
2018-10-18T20:50:24.492Z,96980.58
2018-10-18T20:52:56.245Z,96982.57
2018-10-18T20:55:26.556Z,96990.49
2018-10-18T20:57:55.084Z,96979.50
2018-10-18T21:00:25.157Z,96989.38
2018-10-18T21:02:55.779Z,96980.69
2018-10-18T21:05:26.234Z,96982.66
2018-10-18T21:07:58.338Z,96989.70
2018-10-18T21:10:29.150Z,96990.80
2018-10-18T21:12:59.701Z,96993.30
2018-10-18T21:15:28.614Z,96988.30
2018-10-18T21:17:59.042Z,96988.69
2018-10-18T21:20:28.141Z,96993.23
2018-10-18T21:22:57.775Z,96995.13
2018-10-18T21:25:26.932Z,96987.73
2018-10-18T21:27:56.127Z,96988.27
2018-10-18T21:30:25.389Z,96990.70
2018-10-18T21:32:53.945Z,96985.64
2018-10-18T21:35:24.226Z,96993.64
2018-10-18T21:37:53.790Z,96994.79
2018-10-18T21:40:23.867Z,96994.03
2018-10-18T21:42:54.799Z,96991.66
2018-10-18T21:45:24.496Z,96993.83
2018-10-18T21:47:55.301Z,96996.84
2018-10-18T21:50:25.862Z,96993.59
2018-10-18T21:52:54.758Z,96996.52
2018-10-18T21:55:25.544Z,96987.91
2018-10-18T21:57:55.573Z,96986.30
2018-10-18T22:00:30.225Z,96982.64
2018-10-18T22:02:59.869Z,96988.28
2018-10-18T22:05:29.215Z,96981.97
2018-10-18T22:07:58.880Z,96983.28
2018-10-18T22:10:28.855Z,96984.91
2018-10-18T22:12:58.119Z,96984.89
2018-10-18T22:15:27.034Z,96986.00
2018-10-18T22:17:59.068Z,96982.28
2018-10-18T22:20:28.186Z,96983.65
2018-10-18T22:22:57.730Z,96977.59
2018-10-18T22:25:27.403Z,96977.34
2018-10-18T22:27:56.564Z,96976.28
2018-10-18T22:30:27.384Z,96979.45
2018-10-18T22:32:56.711Z,96981.34
2018-10-18T22:35:27.022Z,96978.66
2018-10-18T22:37:58.804Z,96977.52
2018-10-18T22:40:29.284Z,96975.66
2018-10-18T22:42:59.632Z,96973.83
2018-10-18T22:45:29.439Z,96973.59
2018-10-18T22:47:59.913Z,96972.53
2018-10-18T22:50:30.497Z,96969.88
2018-10-18T22:53:00.104Z,96970.39
2018-10-18T22:55:30.091Z,96969.02
2018-10-18T22:57:59.275Z,96968.98
2018-10-18T23:00:28.323Z,96965.52
2018-10-18T23:03:03.750Z,96967.70
2018-10-18T23:05:32.229Z,96965.30
2018-10-18T23:08:02.053Z,96886.39
2018-10-18T23:10:30.842Z,96967.72
2018-10-18T23:12:59.560Z,96967.20
2018-10-18T23:15:30.435Z,96975.45
2018-10-18T23:18:00.953Z,97010.32
2018-10-18T23:20:29.515Z,96973.80
2018-10-18T23:22:58.845Z,96970.05
2018-10-18T23:25:30.631Z,96977.77
2018-10-18T23:27:59.961Z,96980.11
2018-10-18T23:30:29.273Z,96970.78
2018-10-18T23:32:58.096Z,96969.66
2018-10-18T23:35:27.428Z,96973.14
2018-10-18T23:37:55.947Z,96974.80
2018-10-18T23:40:25.022Z,96975.63
2018-10-18T23:42:54.574Z,96976.24
2018-10-18T23:45:23.418Z,97015.41
2018-10-18T23:47:54.449Z,96976.03
2018-10-18T23:50:23.764Z,96976.28
2018-10-18T23:52:55.453Z,96974.16
2018-10-18T23:55:24.893Z,96970.70
2018-10-18T23:57:55.075Z,96978.95
